Time;durP1;ratioP1;P1;durP2;ratioP2;P2;SDS_P1;SDS_P2;PMS_P1;PMS_P2;Temp;Humidity;BMP_temperature;BMP_pressure;BME280_temperature;BME280_humidity;BME280_pressure;Samples;Min_cycle;Max_cycle;Signal;HPM_P1;HPM_P2
2023/06/07 00:01:08;;;;;;;;;20.50;20.00;;;;;16.69;100.00;99641.59;6277886;20;2836776;-50
2023/06/07 00:03:37;;;;;;;;;22.50;22.00;;;;;16.69;100.00;99636.19;6273246;20;2838861;-48
2023/06/07 00:06:08;;;;;;;;;20.00;20.00;;;;;16.61;100.00;99638.72;6275986;20;2838963;-49
2023/06/07 00:08:37;;;;;;;;;27.33;24.67;;;;;16.61;100.00;99633.28;6276554;20;3596223;-52
2023/06/07 00:11:06;;;;;;;;;27.00;24.00;;;;;16.61;100.00;99638.72;6307815;20;2837858;-51
2023/06/07 00:13:38;;;;;;;;;21.67;21.67;;;;;16.67;100.00;99639.03;6276105;20;2850332;-47
2023/06/07 00:16:06;;;;;;;;;21.33;20.00;;;;;16.50;100.00;99631.53;6311680;20;3583640;-48
2023/06/07 00:18:34;;;;;;;;;23.33;21.67;;;;;16.63;100.00;99629.44;6275942;20;3577366;-49
2023/06/07 00:21:04;;;;;;;;;23.00;23.00;;;;;16.51;100.00;99633.25;6276473;20;2845741;-48
2023/06/07 00:23:32;;;;;;;;;26.00;21.33;;;;;16.64;100.00;99630.31;6310117;20;3572164;-49
2023/06/07 00:26:01;;;;;;;;;24.00;23.00;;;;;16.76;100.00;99625.66;6274334;20;2840906;-49
2023/06/07 00:28:30;;;;;;;;;23.33;22.67;;;;;16.68;100.00;99626.34;6276854;20;2846168;-49
2023/06/07 00:30:58;;;;;;;;;16.00;15.33;;;;;16.55;100.00;99617.56;6306867;20;3564853;-45
2023/06/07 00:33:27;;;;;;;;;22.50;20.00;;;;;16.48;100.00;99616.38;6276003;20;2839897;-45
2023/06/07 00:35:55;;;;;;;;;25.33;23.33;;;;;16.44;100.00;99613.94;6281690;20;3577368;-46
2023/06/07 00:38:24;;;;;;;;;17.00;17.00;;;;;16.53;100.00;99611.41;6276135;20;2828586;-50
2023/06/07 00:40:52;;;;;;;;;24.67;22.67;;;;;16.45;100.00;99615.66;6279540;20;3570052;-46
2023/06/07 00:43:20;;;;;;;;;27.33;20.67;;;;;16.44;100.00;99619.38;6312083;20;3590881;-47
2023/06/07 00:45:49;;;;;;;;;19.00;19.00;;;;;16.67;100.00;99613.78;6275073;20;2840926;-46
2023/06/07 00:48:17;;;;;;;;;19.33;19.33;;;;;16.56;100.00;99613.84;6310813;20;3571117;-46
2023/06/07 00:50:46;;;;;;;;;21.00;20.00;;;;;16.46;100.00;99614.69;6274741;20;2821200;-48
2023/06/07 00:53:17;;;;;;;;;23.00;21.00;;;;;16.40;100.00;99612.50;6277614;20;2846147;-46
2023/06/07 00:55:45;;;;;;;;;23.67;20.00;;;;;16.40;100.00;99611.63;6308333;20;3578421;-47
2023/06/07 00:58:15;;;;;;;;;25.00;21.67;;;;;16.32;100.00;99606.88;6274717;20;2838346;-45
2023/06/07 01:00:44;;;;;;;;;20.67;20.67;;;;;16.41;100.00;99611.50;6310713;20;3564828;-47
2023/06/07 01:03:12;;;;;;;;;20.33;19.67;;;;;16.37;100.00;99610.03;6279669;20;3575279;-45
2023/06/07 01:05:44;;;;;;;;;20.67;20.00;;;;;16.42;100.00;99606.94;6275145;20;3587821;-47
2023/06/07 01:08:12;;;;;;;;;20.00;20.00;;;;;16.39;100.00;99609.91;6279447;20;3576430;-46
2023/06/07 01:10:40;;;;;;;;;23.00;21.00;;;;;16.42;100.00;99610.50;6279065;20;3575410;-48
2023/06/07 01:13:09;;;;;;;;;26.33;23.33;;;;;16.54;100.00;99621.28;6276428;20;3588854;-47
2023/06/07 01:15:38;;;;;;;;;16.00;15.00;;;;;16.67;100.00;99616.50;6275070;20;3549253;-49
2023/06/07 01:18:09;;;;;;;;;24.00;22.00;;;;;16.45;100.00;99617.50;6276126;20;2840036;-46
2023/06/07 01:20:39;;;;;;;;;23.67;22.00;;;;;16.43;100.00;99619.50;6278951;20;3583694;-45
2023/06/07 01:23:11;;;;;;;;;21.50;19.50;;;;;16.37;100.00;99607.34;6269664;20;2833691;-47
2023/06/07 01:25:40;;;;;;;;;20.00;20.00;;;;;16.52;100.00;99607.00;6272308;20;2838865;-48
2023/06/07 01:28:08;;;;;;;;;21.00;21.00;;;;;16.39;100.00;99607.22;6304693;20;2847127;-46
2023/06/07 01:30:36;;;;;;;;;19.50;19.50;;;;;16.44;100.00;99605.81;6272822;20;2844112;-47
2023/06/07 01:33:06;;;;;;;;;18.67;18.67;;;;;16.42;100.00;99601.53;6275334;20;2833768;-47
2023/06/07 01:35:35;;;;;;;;;20.67;19.67;;;;;16.53;100.00;99592.44;6305596;20;3569207;-46
2023/06/07 01:38:03;;;;;;;;;25.00;22.00;;;;;16.37;100.00;99593.78;6277120;20;3559677;-45
2023/06/07 01:40:34;;;;;;;;;24.50;18.00;;;;;16.35;100.00;99595.78;6302525;20;2847154;-45
2023/06/07 01:43:04;;;;;;;;;20.00;18.50;;;;;16.33;100.00;99589.66;6275140;20;2833613;-50
2023/06/07 01:45:33;;;;;;;;;23.00;21.50;;;;;16.34;100.00;99591.34;6275258;20;2844124;-50
2023/06/07 01:48:02;;;;;;;;;22.50;20.50;;;;;16.40;100.00;99589.94;6273435;20;2832590;-49
2023/06/07 01:50:30;;;;;;;;;15.50;15.50;;;;;16.46;100.00;99586.72;6270114;20;2825275;-45
2023/06/07 01:52:59;;;;;;;;;24.00;22.00;;;;;16.43;100.00;99593.28;6277456;20;3570143;-44
2023/06/07 01:55:28;;;;;;;;;23.50;21.50;;;;;16.41;100.00;99587.13;6274881;20;2844077;-49
2023/06/07 01:58:39;;;;;;;;;22.00;21.00;;;;;16.42;100.00;99587.97;6278499;20;3574260;-45
2023/06/07 02:01:30;;;;;;;;;22.00;22.00;;;;;16.14;100.00;99576.84;6276681;20;3587846;-46
2023/06/07 02:04:02;;;;;;;;;22.00;20.00;;;;;16.07;100.00;99580.22;6270456;20;2838887;-48
2023/06/07 02:06:34;;;;;;;;;19.50;18.50;;;;;16.14;100.00;99589.50;6303370;20;2831529;-47
2023/06/07 02:09:08;;;;;;;;;21.50;20.50;;;;;16.08;100.00;99581.91;6271596;20;2836765;-47
2023/06/07 02:11:38;;;;;;;;;21.67;21.67;;;;;16.17;100.00;99586.56;6273620;20;3577372;-48
2023/06/07 02:14:08;;;;;;;;;19.67;19.67;;;;;16.14;100.00;99590.38;6270715;20;2838900;-46
2023/06/07 02:16:36;;;;;;;;;27.00;24.00;;;;;16.00;100.00;99591.53;6304360;20;3583654;-46
2023/06/07 02:19:06;;;;;;;;;23.00;21.67;;;;;16.02;100.00;99589.56;6273498;20;3569034;-47
2023/06/07 02:21:36;;;;;;;;;23.50;20.50;;;;;16.05;100.00;99590.31;6272021;20;2841955;-45
2023/06/07 02:24:06;;;;;;;;;21.00;21.00;;;;;16.08;100.00;99581.91;6271796;20;2840921;-47
2023/06/07 02:26:35;;;;;;;;;19.00;19.00;;;;;16.16;100.00;99584.81;6277970;20;3573149;-49
2023/06/07 02:29:03;;;;;;;;;22.00;20.00;;;;;16.18;100.00;99578.28;6276191;20;2841921;-49
2023/06/07 02:31:31;;;;;;;;;21.00;17.00;;;;;16.16;100.00;99585.66;6279999;20;2830493;-47
2023/06/07 02:34:00;;;;;;;;;18.33;18.33;;;;;16.24;100.00;99591.31;6279254;20;2825448;-48
2023/06/07 02:36:32;;;;;;;;;20.33;18.67;;;;;16.22;100.00;99578.88;6310289;20;3573194;-46
2023/06/07 02:39:01;;;;;;;;;21.50;21.50;;;;;16.15;100.00;99583.13;6279269;20;2844043;-45
2023/06/07 02:41:30;;;;;;;;;24.50;20.50;;;;;16.14;100.00;99582.25;6278193;20;2838951;-47
2023/06/07 02:43:58;;;;;;;;;22.00;22.00;;;;;16.12;100.00;99577.97;6280008;20;2842995;-45
2023/06/07 02:46:26;;;;;;;;;21.67;19.67;;;;;16.04;100.00;99581.34;6283164;20;3581579;-47
2023/06/07 02:48:55;;;;;;;;;18.67;18.33;;;;;16.06;100.00;99583.88;6280769;20;3571093;-47
2023/06/07 02:51:25;;;;;;;;;20.67;20.00;;;;;16.11;100.00;99579.78;6276495;20;2844037;-53
2023/06/07 02:53:54;;;;;;;;;22.50;20.50;;;;;16.07;100.00;99585.63;6311052;20;2848176;-45
2023/06/07 02:56:29;;;;;;;;;22.00;21.00;;;;;15.96;100.00;99591.97;6278598;20;2835714;-50
2023/06/07 02:58:57;;;;;;;;;24.00;21.50;;;;;15.96;100.00;99589.25;6280101;20;2842022;-46
2023/06/07 03:01:27;;;;;;;;;22.33;20.33;;;;;16.02;100.00;99586.88;6282192;20;3587798;-46
2023/06/07 03:03:56;;;;;;;;;22.00;19.00;;;;;15.94;100.00;99591.22;6278458;20;2840403;-45
2023/06/07 03:06:29;;;;;;;;;17.00;17.00;;;;;15.93;100.00;99589.50;6278874;20;2831559;-46
2023/06/07 03:08:57;;;;;;;;;21.00;19.50;;;;;16.10;100.00;99593.47;6277207;20;2834699;-48
2023/06/07 03:11:25;;;;;;;;;19.00;16.50;;;;;16.14;100.00;99584.97;6278861;20;2837861;-46
2023/06/07 03:13:54;;;;;;;;;23.33;18.00;;;;;16.11;100.00;99581.66;6278206;20;3591012;-50
2023/06/07 03:16:23;;;;;;;;;20.33;19.00;;;;;16.09;100.00;99584.50;6313836;20;3579423;-45
2023/06/07 03:18:52;;;;;;;;;19.50;17.00;;;;;16.14;100.00;99592.22;6277941;20;2837840;-47
2023/06/07 03:21:20;;;;;;;;;25.50;22.00;;;;;15.98;100.00;99592.66;6277240;20;2829449;-46
2023/06/07 03:23:47;;;;;;;;;22.00;19.50;;;;;15.96;100.00;99597.38;6274395;20;2496134;-46
2023/06/07 03:26:17;;;;;;;;;18.50;18.50;;;;;15.91;100.00;99589.66;6276466;20;2844058;-48
2023/06/07 03:28:45;;;;;;;;;20.00;20.00;;;;;15.98;100.00;99593.56;6278282;20;2840920;-48
2023/06/07 03:31:13;;;;;;;;;17.00;17.00;;;;;15.89;100.00;99588.06;6278889;20;2833581;-51
2023/06/07 03:33:42;;;;;;;;;20.50;19.50;;;;;15.94;100.00;99592.09;6275450;20;2844116;-49
2023/06/07 03:36:11;;;;;;;;;17.00;15.00;;;;;16.08;100.00;99592.75;6279876;20;2814884;-47
2023/06/07 03:38:40;;;;;;;;;23.00;19.00;;;;;16.09;100.00;99600.75;6275549;20;2831633;-50
2023/06/07 03:41:08;;;;;;;;;19.50;18.50;;;;;16.02;100.00;99605.81;6278025;20;2844059;-48
2023/06/07 03:43:36;;;;;;;;;17.50;17.50;;;;;16.11;100.00;99611.44;6279092;20;2835048;-48
2023/06/07 03:46:05;;;;;;;;;22.33;20.00;;;;;16.11;100.00;99614.16;6277534;20;2843039;-47
2023/06/07 03:48:33;;;;;;;;;22.50;20.00;;;;;16.15;100.00;99610.19;6307972;20;2830487;-45
2023/06/07 03:51:01;;;;;;;;;26.50;21.50;;;;;16.11;100.00;99620.41;6278051;20;2837922;-45
2023/06/07 03:53:30;;;;;;;;;22.00;19.50;;;;;15.96;100.00;99616.34;6278265;20;2839891;-48
2023/06/07 03:55:58;;;;;;;;;21.67;20.67;;;;;16.05;100.00;99610.13;6276559;20;2496121;-49
2023/06/07 03:58:26;;;;;;;;;20.00;19.00;;;;;16.18;100.00;99615.34;6314308;20;3577351;-46
2023/06/07 04:00:55;;;;;;;;;18.50;18.50;;;;;16.28;100.00;99605.44;6277158;20;2835814;-45
2023/06/07 04:03:27;;;;;;;;;19.00;19.00;;;;;16.24;100.00;99607.56;6278398;20;2835710;-45
2023/06/07 04:05:55;;;;;;;;;17.00;15.00;;;;;16.34;100.00;99604.03;6276551;20;2496150;-49
2023/06/07 04:08:24;;;;;;;;;21.67;18.00;;;;;16.26;100.00;99612.84;6274956;20;2850240;-50
2023/06/07 04:10:53;;;;;;;;;23.67;20.33;;;;;16.28;100.00;99608.16;6309629;20;3579623;-47
2023/06/07 04:13:21;;;;;;;;;19.00;17.00;;;;;16.43;100.00;99616.81;6275743;20;2823208;-50
2023/06/07 04:15:49;;;;;;;;;23.00;18.50;;;;;16.38;100.00;99619.06;6276412;20;2828481;-48
2023/06/07 04:18:18;;;;;;;;;16.50;15.00;;;;;16.49;100.00;99618.13;6276592;20;2820053;-49
2023/06/07 04:20:46;;;;;;;;;20.00;19.00;;;;;16.33;100.00;99608.59;6278579;20;2839868;-46
2023/06/07 04:23:13;;;;;;;;;17.50;17.50;;;;;16.51;100.00;99616.09;6277458;20;2483581;-48
2023/06/07 04:25:41;;;;;;;;;17.50;16.50;;;;;16.52;100.00;99613.28;6275944;20;2491967;-46
2023/06/07 04:28:10;;;;;;;;;16.67;16.67;;;;;16.42;100.00;99617.78;6273085;20;3571310;-51
2023/06/07 04:30:42;;;;;;;;;19.00;18.00;;;;;16.52;100.00;99617.84;6277184;20;2834715;-46
2023/06/07 04:33:12;;;;;;;;;15.00;13.50;;;;;16.66;100.00;99618.34;6277356;20;2498244;-52
2023/06/07 04:35:43;;;;;;;;;20.50;18.00;;;;;16.58;100.00;99617.28;6277410;20;2831310;-48
2023/06/07 04:38:20;;;;;;;;;15.33;13.67;;;;;16.57;100.00;99626.44;6277096;20;3533728;-50
2023/06/07 04:40:52;;;;;;;;;20.67;18.33;;;;;16.79;100.00;99622.72;6274994;20;2837823;-52
2023/06/07 04:43:20;;;;;;;;;15.00;15.00;;;;;16.80;100.00;99621.75;6307168;20;2483674;-50
2023/06/07 04:45:54;;;;;;;;;19.00;18.50;;;;;16.76;100.00;99621.09;6276055;20;2839928;-47
2023/06/07 04:48:26;;;;;;;;;21.00;18.50;;;;;16.75;100.00;99626.69;6275185;20;2834751;-47
2023/06/07 04:51:03;;;;;;;;;19.33;18.00;;;;;16.67;100.00;99620.06;6275025;20;2487775;-47
2023/06/07 04:53:39;;;;;;;;;17.00;17.00;;;;;16.81;100.00;99618.03;6309410;20;2835691;-47
2023/06/07 04:56:06;;;;;;;;;14.50;14.50;;;;;16.72;100.00;99621.50;6278122;20;2487770;-50
2023/06/07 04:58:36;;;;;;;;;20.00;18.00;;;;;16.95;100.00;99628.50;6275834;20;2855452;-47
2023/06/07 05:01:03;;;;;;;;;14.00;14.00;;;;;16.95;100.00;99619.50;6279716;20;2800285;-46
2023/06/07 05:03:32;;;;;;;;;18.67;15.67;;;;;17.13;100.00;99627.84;6279552;20;2831679;-46
2023/06/07 05:06:02;;;;;;;;;17.50;17.00;;;;;17.11;100.00;99620.72;6307097;20;2837808;-50
2023/06/07 05:08:31;;;;;;;;;17.67;16.00;;;;;16.94;100.00;99625.94;6275168;20;3566960;-47
2023/06/07 05:10:59;;;;;;;;;13.50;13.00;;;;;17.10;100.00;99634.41;6275140;20;2814885;-50
2023/06/07 05:13:27;;;;;;;;;13.67;13.67;;;;;17.14;100.00;99622.28;6276670;20;3528416;-50
2023/06/07 05:15:55;;;;;;;;;15.50;14.50;;;;;17.20;100.00;99621.72;6272314;20;2810682;-46
2023/06/07 05:18:24;;;;;;;;;17.50;15.50;;;;;17.41;100.00;99626.22;6279287;20;2821194;-47
2023/06/07 05:20:52;;;;;;;;;16.00;15.00;;;;;17.35;100.00;99627.59;6277954;20;3521117;-46
2023/06/07 05:23:20;;;;;;;;;15.50;14.00;;;;;17.45;100.00;99631.19;6278004;20;2489931;-49
2023/06/07 05:25:47;;;;;;;;;16.50;14.00;;;;;17.63;100.00;99631.38;6276316;20;2492038;-46
2023/06/07 05:28:15;;;;;;;;;16.67;14.33;;;;;17.44;100.00;99628.66;6277833;20;3544207;-49
2023/06/07 05:30:44;;;;;;;;;16.67;14.00;;;;;17.61;100.00;99633.38;6276612;20;3540910;-45
2023/06/07 05:33:12;;;;;;;;;17.00;15.00;;;;;17.64;100.00;99637.66;6280329;20;3549257;-49
2023/06/07 05:35:44;;;;;;;;;17.00;15.33;;;;;17.49;100.00;99631.81;6310680;20;3560735;-50
2023/06/07 05:38:13;;;;;;;;;14.33;14.33;;;;;17.64;100.00;99633.13;6311806;20;3527499;-47
2023/06/07 05:40:41;;;;;;;;;14.00;13.00;;;;;17.77;100.00;99636.41;6307025;20;3523210;-46
2023/06/07 05:43:09;;;;;;;;;18.00;16.00;;;;;17.85;100.00;99630.31;6268692;20;2556588;-48
2023/06/07 05:45:40;;;;;;;;;18.50;14.00;;;;;17.97;100.00;99641.88;6305378;20;2811846;-45
2023/06/07 05:48:07;;;;;;;;;16.50;16.50;;;;;17.84;100.00;99638.59;6270056;20;2491955;-45
2023/06/07 05:50:35;;;;;;;;;17.00;17.00;;;;;18.07;100.00;99641.88;6272066;20;2486320;-46
2023/06/07 05:53:03;;;;;;;;;14.67;13.33;;;;;18.35;100.00;99642.84;6271796;20;3529424;-45
2023/06/07 05:55:31;;;;;;;;;18.33;17.00;;;;;18.38;100.00;99648.88;6306229;20;3569178;-46
2023/06/07 05:58:03;;;;;;;;;11.00;10.50;;;;;18.46;100.00;99644.53;6277189;20;2797231;-45
2023/06/07 06:00:31;;;;;;;;;16.00;15.50;;;;;18.63;100.00;99652.81;6273610;20;2814935;-49
2023/06/07 06:03:01;;;;;;;;;18.33;14.67;;;;;18.68;100.00;99641.50;6276628;20;3541059;-48
2023/06/07 06:05:30;;;;;;;;;15.00;15.00;;;;;18.97;100.00;99649.59;6282182;20;2814919;-47
2023/06/07 06:07:58;;;;;;;;;13.00;13.00;;;;;19.04;100.00;99650.72;6281804;20;3535668;-45
2023/06/07 06:10:26;;;;;;;;;17.67;13.00;;;;;19.65;100.00;99648.38;6277300;20;3536731;-45
2023/06/07 06:12:55;;;;;;;;;12.67;12.00;;;;;19.65;98.87;99649.22;6278394;20;3519004;-51
2023/06/07 06:15:23;;;;;;;;;10.00;10.00;;;;;19.45;97.62;99642.19;6280715;20;3505580;-46
2023/06/07 06:17:54;;;;;;;;;14.00;12.00;;;;;19.46;97.29;99643.91;6311475;20;2808652;-49
2023/06/07 06:20:22;;;;;;;;;13.33;12.33;;;;;20.20;92.77;99648.25;6310288;20;3544046;-47
2023/06/07 06:22:50;;;;;;;;;11.67;11.67;;;;;20.05;92.27;99652.56;6284804;20;2800342;-47
2023/06/07 06:25:19;;;;;;;;;15.00;12.00;;;;;19.68;94.08;99648.94;6311447;20;3525257;-46
2023/06/07 06:27:47;;;;;;;;;10.33;10.33;;;;;20.01;95.00;99653.88;6278560;20;3513878;-49
2023/06/07 06:30:15;;;;;;;;;11.33;11.33;;;;;19.75;95.71;99649.22;6277364;20;3509675;-46
2023/06/07 06:32:43;;;;;;;;;13.00;11.67;;;;;20.32;95.03;99648.84;6311075;20;3522189;-46
2023/06/07 06:35:16;;;;;;;;;12.00;12.00;;;;;20.41;91.76;99649.81;6315043;20;2484043;-46
2023/06/07 06:37:45;;;;;;;;;13.00;13.00;;;;;19.78;87.43;99653.50;6310994;20;3522141;-45
2023/06/07 06:40:13;;;;;;;;;11.00;11.00;;;;;20.95;89.53;99658.72;6311197;20;3506511;-50
2023/06/07 06:42:41;;;;;;;;;11.00;11.00;;;;;21.50;84.74;99666.50;6281486;20;3514899;-45
2023/06/07 06:45:10;;;;;;;;;12.67;9.33;;;;;21.33;86.10;99660.09;6312837;20;2773202;-49
2023/06/07 06:47:41;;;;;;;;;13.67;12.00;;;;;21.92;85.18;99663.72;6316774;20;2789982;-45
2023/06/07 06:50:12;;;;;;;;;10.33;10.33;;;;;21.75;82.99;99666.56;6313830;20;2783005;-49
2023/06/07 06:52:58;;;;;;;;;12.00;11.00;;;;;22.52;81.81;99675.41;6312096;20;3520091;-48
2023/06/07 06:55:27;;;;;;;;;11.67;11.00;;;;;21.20;84.03;99670.63;6311433;20;2794030;-48
2023/06/07 06:57:55;;;;;;;;;11.67;11.67;;;;;20.63;89.14;99668.41;6309729;20;3518009;-48
2023/06/07 07:00:26;;;;;;;;;13.33;11.67;;;;;20.66;88.68;99669.94;6314567;20;2784654;-50
2023/06/07 07:02:54;;;;;;;;;11.67;11.00;;;;;20.63;88.56;99668.41;6313251;20;3514827;-46
2023/06/07 07:05:23;;;;;;;;;13.00;13.00;;;;;20.37;92.94;99663.72;6278957;20;2483604;-50
2023/06/07 07:07:53;;;;;;;;;14.33;14.00;;;;;20.25;89.16;99661.41;6309059;20;3541036;-47
2023/06/07 07:10:21;;;;;;;;;12.33;10.33;;;;;20.43;90.13;99664.97;6279323;20;2491976;-46
2023/06/07 07:12:49;;;;;;;;;17.33;13.00;;;;;20.63;90.02;99664.81;6308822;20;3530501;-47
2023/06/07 07:15:18;;;;;;;;;15.00;12.00;;;;;20.56;90.14;99661.84;6309211;20;3513934;-48
2023/06/07 07:17:48;;;;;;;;;12.00;12.00;;;;;21.25;87.93;99668.25;6277607;20;3508618;-45
2023/06/07 07:20:17;;;;;;;;;12.00;12.00;;;;;21.32;84.86;99665.72;6308074;20;3534755;-46
2023/06/07 07:22:46;;;;;;;;;13.67;12.00;;;;;21.68;87.85;99672.72;6308534;20;3515071;-48
2023/06/07 07:25:16;;;;;;;;;14.00;14.00;;;;;22.00;84.98;99672.97;6310122;20;2483612;-49
2023/06/07 07:27:44;;;;;;;;;16.00;14.33;;;;;21.92;83.05;99671.91;6308063;20;3546199;-47
2023/06/07 07:30:13;;;;;;;;;12.67;11.67;;;;;22.54;78.99;99674.22;6279243;20;3509792;-45
2023/06/07 07:32:41;;;;;;;;;12.67;12.67;;;;;22.26;83.02;99673.69;6277020;20;3515918;-45
2023/06/07 07:35:09;;;;;;;;;13.67;12.00;;;;;23.28;79.06;99676.00;6318015;20;2790940;-46
2023/06/07 07:37:40;;;;;;;;;11.00;11.00;;;;;22.61;79.17;99679.00;6310735;20;2483677;-49
2023/06/07 07:40:09;;;;;;;;;10.00;10.00;;;;;22.72;76.67;99681.38;6307609;20;3511883;-47
2023/06/07 07:42:37;;;;;;;;;12.67;11.33;;;;;22.82;75.93;99687.53;6309200;20;3505538;-48
2023/06/07 07:45:06;;;;;;;;;10.00;10.00;;;;;23.23;75.38;99687.47;6314184;20;2793076;-49
2023/06/07 07:47:34;;;;;;;;;13.00;11.00;;;;;22.60;75.94;99683.63;6309102;20;3519127;-46
2023/06/07 07:50:05;;;;;;;;;10.33;10.33;;;;;22.20;77.69;99685.34;6312307;20;2783678;-44
2023/06/07 07:52:33;;;;;;;;;11.67;10.00;;;;;21.82;80.37;99686.75;6311985;20;2792048;-46
2023/06/07 07:55:02;;;;;;;;;11.00;11.00;;;;;22.25;80.33;99680.22;6312376;20;2782721;-48
2023/06/07 07:57:31;;;;;;;;;12.00;9.00;;;;;21.87;79.61;99676.19;6312184;20;2775375;-48
2023/06/07 07:59:59;;;;;;;;;12.67;11.33;;;;;21.74;82.61;99670.34;6306295;20;3512760;-51
2023/06/07 08:02:29;;;;;;;;;10.67;10.67;;;;;21.74;83.25;99676.66;6314475;20;2786762;-47
2023/06/07 08:04:57;;;;;;;;;12.33;10.33;;;;;22.30;81.16;99682.41;6308974;20;3513809;-46
2023/06/07 08:07:25;;;;;;;;;9.00;9.00;;;;;22.42;80.06;99681.06;6313051;20;2760824;-45
2023/06/07 08:09:53;;;;;;;;;11.00;11.00;;;;;22.75;79.31;99692.00;6311288;20;2791940;-46
2023/06/07 08:12:21;;;;;;;;;13.00;10.33;;;;;22.94;76.63;99679.81;6308147;20;3512879;-51
2023/06/07 08:14:50;;;;;;;;;11.67;11.67;;;;;23.13;77.79;99684.91;6308525;20;3509711;-47
2023/06/07 08:17:19;;;;;;;;;14.00;13.00;;;;;22.77;79.54;99684.44;6308987;20;3529671;-47
2023/06/07 08:19:48;;;;;;;;;16.00;15.00;;;;;22.75;79.34;99687.38;6276268;20;2483697;-46
2023/06/07 08:22:16;;;;;;;;;12.67;11.67;;;;;22.22;81.18;99688.75;6309611;20;3525407;-47
2023/06/07 08:24:45;;;;;;;;;14.00;13.00;;;;;22.27;80.23;99690.97;6274349;20;2801417;-45
2023/06/07 08:27:13;;;;;;;;;13.33;12.00;;;;;22.23;79.77;99686.88;6277794;20;2494020;-46
2023/06/07 08:29:41;;;;;;;;;19.00;18.00;;;;;22.39;80.47;99691.50;6306547;20;2829452;-48
2023/06/07 08:32:09;;;;;;;;;17.00;15.50;;;;;22.82;79.76;99686.66;6277999;20;2827355;-48
2023/06/07 08:34:40;;;;;;;;;18.00;16.00;;;;;22.17;79.96;99687.50;6279496;20;3562850;-45
2023/06/07 08:37:08;;;;;;;;;16.67;16.67;;;;;22.14;78.81;99686.84;6276550;20;3545044;-48
2023/06/07 08:39:36;;;;;;;;;19.33;17.67;;;;;22.33;81.33;99690.31;6306812;20;3567962;-48
2023/06/07 08:42:05;;;;;;;;;14.67;14.67;;;;;22.41;79.42;99682.09;6274503;20;3539897;-50
2023/06/07 08:44:33;;;;;;;;;16.00;15.33;;;;;22.28;81.53;99689.97;6307778;20;3552378;-45
2023/06/07 08:47:03;;;;;;;;;19.00;16.50;;;;;22.45;80.62;99680.72;6305606;20;2836137;-45
2023/06/07 08:49:35;;;;;;;;;15.50;15.50;;;;;22.07;80.12;99683.06;6275899;20;2821162;-47
2023/06/07 08:52:05;;;;;;;;;18.33;18.33;;;;;22.43;81.90;99681.91;6279052;20;3573160;-50
2023/06/07 08:54:47;;;;;;;;;18.67;16.33;;;;;22.35;80.53;99686.38;6277642;20;3562812;-46
2023/06/07 08:57:16;;;;;;;;;20.00;15.67;;;;;22.18;81.92;99672.81;6275946;20;3551307;-46
2023/06/07 08:59:46;;;;;;;;;17.00;17.00;;;;;22.14;81.58;99681.38;6307647;20;2830524;-46
2023/06/07 09:02:16;;;;;;;;;17.33;14.67;;;;;22.30;80.40;99682.41;6273962;20;3552470;-48
2023/06/07 09:04:44;;;;;;;;;16.00;15.67;;;;;22.40;80.53;99671.31;6278273;20;3555470;-49
2023/06/07 09:07:13;;;;;;;;;15.00;13.33;;;;;22.75;80.31;99676.44;6309925;20;2483620;-47
2023/06/07 09:09:43;;;;;;;;;13.00;12.00;;;;;22.84;77.58;99674.53;6309743;20;3517992;-47
2023/06/07 09:12:11;;;;;;;;;15.00;14.00;;;;;22.95;76.40;99665.94;6306500;20;3531748;-47
2023/06/07 09:14:40;;;;;;;;;13.33;12.67;;;;;23.15;77.43;99673.81;6277146;20;3536702;-46
2023/06/07 09:17:08;;;;;;;;;13.33;13.00;;;;;23.00;76.32;99677.25;6275437;20;3523274;-46
2023/06/07 09:19:39;;;;;;;;;14.00;13.00;;;;;22.99;75.57;99677.44;6310800;20;3524209;-45
2023/06/07 09:22:14;;;;;;;;;14.00;14.00;;;;;22.62;78.53;99675.22;6307673;20;3526297;-48
2023/06/07 09:24:42;;;;;;;;;12.33;12.33;;;;;22.65;77.52;99680.38;6302846;20;3532592;-50
2023/06/07 09:27:13;;;;;;;;;12.67;12.67;;;;;22.42;78.91;99674.75;6276188;20;3535744;-46
2023/06/07 09:29:43;;;;;;;;;13.33;12.00;;;;;22.50;81.82;99678.31;6275983;20;3531673;-46
2023/06/07 09:32:25;;;;;;;;;13.67;12.67;;;;;22.77;78.75;99678.97;6277553;20;3513832;-48
2023/06/07 09:35:14;;;;;;;;;12.00;12.00;;;;;22.71;78.33;99682.41;6309428;20;2785819;-45
2023/06/07 09:37:48;;;;;;;;;15.00;13.00;;;;;22.58;77.77;99681.03;6306169;20;2804579;-48
2023/06/07 09:40:17;;;;;;;;;15.00;13.00;;;;;22.87;79.64;99685.13;6271435;20;3533987;-44
2023/06/07 09:42:57;;;;;;;;;14.67;14.00;;;;;22.55;79.92;99677.81;6307897;20;2483646;-45
2023/06/07 09:45:27;;;;;;;;;14.00;14.00;;;;;23.03;78.09;99677.94;6305104;20;2804440;-46
2023/06/07 09:48:09;;;;;;;;;11.67;11.67;;;;;23.17;76.31;99674.47;6275820;20;2798195;-51
2023/06/07 09:50:37;;;;;;;;;16.00;16.00;;;;;23.04;77.83;99675.03;6305013;20;2483634;-48
2023/06/07 09:53:05;;;;;;;;;13.67;12.33;;;;;23.31;78.31;99679.22;6309613;20;3533577;-50
2023/06/07 09:55:34;;;;;;;;;16.00;15.00;;;;;23.05;77.31;99675.88;6302712;20;2816915;-48
2023/06/07 09:58:22;;;;;;;;;14.67;14.67;;;;;22.67;78.04;99675.56;6278524;20;2487917;-45
2023/06/07 10:00:52;;;;;;;;;20.00;19.00;;;;;22.70;81.21;99673.34;6307054;20;2829477;-47
2023/06/07 10:03:20;;;;;;;;;19.67;19.67;;;;;22.57;79.94;99673.03;6275362;20;3581486;-48
2023/06/07 10:05:49;;;;;;;;;17.67;16.67;;;;;22.19;80.81;99674.53;6273235;20;3564920;-47
2023/06/07 10:08:18;;;;;;;;;20.67;19.67;;;;;22.21;80.28;99672.50;6271275;20;2831614;-50
2023/06/07 10:10:51;;;;;;;;;23.00;22.00;;;;;22.05;81.19;99674.16;6306052;20;3583580;-49
2023/06/07 10:13:22;;;;;;;;;20.33;18.67;;;;;22.45;82.08;99668.91;6276092;20;3564928;-46
2023/06/07 10:15:51;;;;;;;;;21.00;20.00;;;;;22.62;81.65;99673.38;6274729;20;3581634;-47
2023/06/07 10:18:26;;;;;;;;;21.33;19.67;;;;;22.63;82.30;99674.22;6275667;20;3573361;-44
2023/06/07 10:21:01;;;;;;;;;19.00;19.00;;;;;22.56;79.27;99671.28;6276453;20;3568021;-44
2023/06/07 10:23:51;;;;;;;;;19.00;18.00;;;;;22.89;79.83;99677.59;6268599;20;2822187;-51
2023/06/07 10:26:31;;;;;;;;;20.67;19.67;;;;;22.94;81.28;99677.94;6278261;20;3572247;-48
2023/06/07 10:29:08;;;;;;;;;18.00;18.00;;;;;22.81;79.33;99680.34;6271106;20;3560851;-52
2023/06/07 10:31:50;;;;;;;;;20.67;20.67;;;;;22.59;79.82;99676.41;6268173;20;2837880;-49
2023/06/07 10:34:21;;;;;;;;;21.00;21.00;;;;;22.19;81.88;99669.06;6303942;20;2844129;-45
2023/06/07 10:36:49;;;;;;;;;22.67;20.00;;;;;22.79;81.56;99672.28;6305365;20;3576299;-48
2023/06/07 10:39:19;;;;;;;;;20.00;20.00;;;;;23.32;78.05;99669.09;6274942;20;3574336;-49
2023/06/07 10:41:47;;;;;;;;;21.67;21.67;;;;;23.20;78.61;99669.50;6274030;20;3581514;-49
2023/06/07 10:44:16;;;;;;;;;23.00;23.00;;;;;23.35;78.57;99671.50;6273716;20;3582596;-45
2023/06/07 10:46:44;;;;;;;;;23.00;21.00;;;;;23.74;76.27;99666.03;6275136;20;3589879;-47
2023/06/07 10:49:36;;;;;;;;;23.67;23.00;;;;;23.67;76.64;99665.00;6278765;20;3598350;-47
2023/06/07 10:52:06;;;;;;;;;24.67;22.00;;;;;23.52;77.01;99673.13;6280837;20;3585748;-45
2023/06/07 10:54:35;;;;;;;;;23.00;23.00;;;;;23.64;79.18;99670.84;6284741;20;3578447;-46
2023/06/07 10:57:04;;;;;;;;;27.67;25.00;;;;;23.56;78.16;99668.13;6282753;20;3596161;-45
2023/06/07 10:59:32;;;;;;;;;23.67;22.33;;;;;23.73;77.40;99663.47;6282630;20;3578435;-49
2023/06/07 11:02:19;;;;;;;;;28.67;27.67;;;;;23.25;76.64;99668.97;6279676;20;3591913;-45
2023/06/07 11:04:56;;;;;;;;;31.00;25.75;;;;;23.35;76.74;99657.78;6280269;20;3601380;-47
2023/06/07 11:07:32;;;;;;;;;29.00;29.00;;;;;23.51;77.02;99654.97;6312281;20;3588797;-48
2023/06/07 11:10:07;;;;;;;;;28.33;26.67;;;;;23.85;76.96;99665.59;6278145;20;3584745;-52